createdAt,value
2022-12-04T00:00:33.564Z,2.30
2022-12-04T00:03:02.572Z,2.20
2022-12-04T00:05:29.486Z,2.40
2022-12-04T00:07:56.849Z,2.50
2022-12-04T00:10:23.912Z,2.40
2022-12-04T00:12:50.670Z,2.30
2022-12-04T00:15:26.191Z,2.30
2022-12-04T00:17:54.184Z,2.20
2022-12-04T00:20:21.578Z,2.40
2022-12-04T00:22:48.232Z,2.40
2022-12-04T00:25:15.355Z,2.30
2022-12-04T00:27:42.333Z,2.30
2022-12-04T00:30:09.392Z,2.20
2022-12-04T00:32:37.259Z,2.20
2022-12-04T00:35:04.484Z,2.20
2022-12-04T00:37:33.276Z,2.10
2022-12-04T00:40:00.068Z,2.20
2022-12-04T00:42:27.103Z,2.30
2022-12-04T00:44:54.131Z,2.20
2022-12-04T00:47:21.198Z,2.30
2022-12-04T00:49:48.249Z,2.20
2022-12-04T00:52:15.603Z,2.30
2022-12-04T00:54:43.569Z,2.20
2022-12-04T00:57:10.619Z,2.20
2022-12-04T00:59:38.090Z,2.20
2022-12-04T01:02:05.228Z,2.30
2022-12-04T01:04:32.250Z,2.20
2022-12-04T01:07:04.613Z,2.40
2022-12-04T01:09:32.700Z,2.20
2022-12-04T01:11:59.452Z,2.20
2022-12-04T01:14:26.498Z,2.20
2022-12-04T01:16:53.751Z,2.30
2022-12-04T01:19:20.581Z,2.40
2022-12-04T01:21:47.249Z,2.50
2022-12-04T01:24:14.375Z,2.50
2022-12-04T01:26:41.334Z,2.30
2022-12-04T01:29:08.396Z,2.30
2022-12-04T01:31:35.571Z,2.30
2022-12-04T01:34:02.470Z,2.20
2022-12-04T01:36:29.541Z,2.30
2022-12-04T01:38:57.016Z,2.20
2022-12-04T01:41:27.973Z,2.20
2022-12-04T01:44:22.164Z,2.20
2022-12-04T01:46:54.661Z,2.10
2022-12-04T01:49:33.978Z,2.10
2022-12-04T01:52:11.218Z,2.20
2022-12-04T01:54:44.056Z,2.20
2022-12-04T01:57:17.299Z,2.10
2022-12-04T01:59:48.152Z,2.10
2022-12-04T02:02:18.926Z,2.20
2022-12-04T02:04:46.651Z,2.10
2022-12-04T02:07:13.732Z,2.00
2022-12-04T02:09:41.899Z,2.00
2022-12-04T02:12:33.299Z,2.00
2022-12-04T02:15:06.403Z,2.10
2022-12-04T02:17:42.347Z,2.10
2022-12-04T02:20:32.448Z,2.10
2022-12-04T02:23:08.103Z,2.00
2022-12-04T02:25:52.729Z,2.00
2022-12-04T02:28:48.846Z,1.90
2022-12-04T02:31:30.855Z,1.90
2022-12-04T02:34:16.335Z,1.80
2022-12-04T02:37:10.778Z,1.80
2022-12-04T02:40:09.076Z,1.80
2022-12-04T02:43:01.615Z,1.90
2022-12-04T02:45:34.154Z,1.80
2022-12-04T02:48:04.015Z,1.80
2022-12-04T02:50:32.844Z,1.90
2022-12-04T02:53:05.333Z,1.80
2022-12-04T02:55:38.492Z,1.70
2022-12-04T02:58:15.452Z,1.70
2022-12-04T03:00:45.270Z,1.80
2022-12-04T03:03:20.396Z,1.80
2022-12-04T03:06:00.024Z,1.90
2022-12-04T03:08:33.807Z,1.80
2022-12-04T03:11:01.433Z,1.70
2022-12-04T03:13:44.686Z,1.70
2022-12-04T03:16:22.165Z,1.80
2022-12-04T03:18:58.906Z,1.90
2022-12-04T03:21:29.991Z,1.90
2022-12-04T03:24:04.742Z,1.70
2022-12-04T03:26:47.678Z,1.70
2022-12-04T03:29:26.974Z,1.80
2022-12-04T03:32:04.819Z,1.80
2022-12-04T03:34:41.792Z,1.90
2022-12-04T03:37:12.836Z,1.90
2022-12-04T03:39:59.945Z,1.90
2022-12-04T03:42:43.656Z,2.00
2022-12-04T03:45:23.931Z,1.90
2022-12-04T03:48:07.947Z,1.80
2022-12-04T03:50:57.665Z,1.80
2022-12-04T03:53:43.291Z,1.70
2022-12-04T03:56:17.079Z,1.70
2022-12-04T03:58:48.973Z,1.80
2022-12-04T04:01:20.009Z,2.00
2022-12-04T04:03:50.027Z,1.90
2022-12-04T04:06:26.031Z,1.70
2022-12-04T04:08:56.923Z,1.70
2022-12-04T04:11:31.708Z,1.60
2022-12-04T04:14:32.722Z,1.60
2022-12-04T04:17:22.265Z,1.60
2022-12-04T04:20:12.959Z,1.60
2022-12-04T04:22:59.380Z,1.70
2022-12-04T04:25:28.434Z,1.70
2022-12-04T04:27:58.095Z,1.80
2022-12-04T04:30:25.968Z,1.80
2022-12-04T04:33:06.471Z,1.70
2022-12-04T04:35:53.445Z,1.80
2022-12-04T04:38:36.396Z,1.90
2022-12-04T04:41:39.130Z,2.00
2022-12-04T04:44:11.630Z,1.90
2022-12-04T04:46:44.095Z,1.80
2022-12-04T04:49:12.565Z,1.70
2022-12-04T04:51:40.197Z,1.70
2022-12-04T04:54:11.851Z,1.70
2022-12-04T04:56:44.102Z,1.70
2022-12-04T04:59:12.034Z,1.90
2022-12-04T05:01:40.057Z,1.90
2022-12-04T05:04:07.813Z,1.90
2022-12-04T05:06:34.992Z,1.90
2022-12-04T05:09:01.789Z,1.90
2022-12-04T05:11:28.819Z,1.90
2022-12-04T05:13:55.872Z,1.80
2022-12-04T05:16:23.677Z,1.80
2022-12-04T05:19:10.025Z,1.90
2022-12-04T05:21:36.733Z,1.80
2022-12-04T05:24:03.811Z,1.80
2022-12-04T05:26:30.815Z,1.80
2022-12-04T05:28:59.868Z,2.00
2022-12-04T05:31:27.064Z,2.00
2022-12-04T05:33:53.940Z,1.90
2022-12-04T05:36:21.074Z,1.90
2022-12-04T05:38:48.106Z,1.90
2022-12-04T05:41:15.101Z,1.90
2022-12-04T05:43:42.165Z,2.00
2022-12-04T05:46:10.558Z,2.00
2022-12-04T05:48:37.555Z,1.90
2022-12-04T05:51:09.164Z,1.90
2022-12-04T05:53:37.078Z,1.90
2022-12-04T05:56:05.764Z,2.00
2022-12-04T05:58:36.242Z,2.20
2022-12-04T06:01:15.923Z,2.20
2022-12-04T06:03:43.188Z,2.20
2022-12-04T06:06:21.776Z,2.10
2022-12-04T06:08:51.045Z,2.10
2022-12-04T06:11:21.629Z,1.90
2022-12-04T06:13:49.031Z,1.90
2022-12-04T06:16:18.639Z,2.00
2022-12-04T06:18:49.364Z,2.10
2022-12-04T06:21:16.406Z,2.10
2022-12-04T06:23:43.328Z,1.90
2022-12-04T06:26:10.346Z,1.90
2022-12-04T06:28:37.987Z,2.10
2022-12-04T06:31:07.709Z,2.20
2022-12-04T06:33:35.628Z,2.20
2022-12-04T06:36:08.124Z,2.20
2022-12-04T06:38:35.483Z,2.10
2022-12-04T06:41:08.511Z,2.00
2022-12-04T06:43:35.631Z,1.90
2022-12-04T06:46:04.679Z,2.00
2022-12-04T06:48:32.560Z,2.10
2022-12-04T06:51:05.934Z,2.10
2022-12-04T06:53:35.368Z,2.10
2022-12-04T06:56:05.533Z,2.10
2022-12-04T06:58:32.311Z,2.10
2022-12-04T07:00:59.866Z,2.00
2022-12-04T07:03:26.974Z,2.00
2022-12-04T07:05:53.684Z,2.10
2022-12-04T07:08:20.870Z,2.20
2022-12-04T07:10:47.783Z,2.20
2022-12-04T07:13:14.842Z,2.10
2022-12-04T07:15:41.928Z,2.10
2022-12-04T07:18:08.936Z,2.10
2022-12-04T07:20:39.203Z,2.00
2022-12-04T07:23:07.533Z,2.00
2022-12-04T07:25:39.890Z,2.10
2022-12-04T07:28:06.714Z,2.10
2022-12-04T07:30:33.330Z,2.00
2022-12-04T07:33:00.290Z,2.10
2022-12-04T07:35:27.319Z,2.00
2022-12-04T07:37:54.287Z,2.00
2022-12-04T07:40:20.999Z,2.00
2022-12-04T07:42:48.023Z,1.90
2022-12-04T07:45:15.477Z,2.00
2022-12-04T07:47:42.681Z,2.00
2022-12-04T07:50:09.704Z,2.10
2022-12-04T07:52:39.887Z,2.00
2022-12-04T07:55:09.131Z,2.00
2022-12-04T07:57:36.043Z,2.10
2022-12-04T08:00:03.371Z,2.10
2022-12-04T08:02:30.126Z,2.00
2022-12-04T08:04:57.261Z,2.00
2022-12-04T08:07:24.291Z,2.00
2022-12-04T08:09:51.265Z,1.90
2022-12-04T08:12:17.946Z,2.00
2022-12-04T08:14:44.949Z,2.00
2022-12-04T08:17:12.963Z,2.00
2022-12-04T08:19:39.965Z,2.10
2022-12-04T08:22:07.116Z,2.20
2022-12-04T08:24:33.999Z,2.30
2022-12-04T08:27:01.055Z,2.30
2022-12-04T08:29:28.126Z,2.40
2022-12-04T08:31:55.928Z,2.40
2022-12-04T08:34:22.668Z,2.30
2022-12-04T08:36:49.698Z,2.30
2022-12-04T08:39:16.787Z,2.20
2022-12-04T08:41:43.762Z,2.20
2022-12-04T08:44:10.774Z,2.20
2022-12-04T08:46:38.789Z,2.10
2022-12-04T08:49:05.971Z,2.20
2022-12-04T08:51:35.355Z,2.10
2022-12-04T08:54:07.991Z,2.20
2022-12-04T08:56:35.956Z,2.10
2022-12-04T08:59:02.967Z,2.00
2022-12-04T09:01:30.446Z,2.10
2022-12-04T09:03:58.105Z,2.00
2022-12-04T09:06:25.117Z,2.10
2022-12-04T09:08:54.367Z,2.10
2022-12-04T09:11:24.767Z,2.10
2022-12-04T09:13:52.694Z,2.10
2022-12-04T09:16:22.107Z,2.10
2022-12-04T09:18:50.005Z,2.10
2022-12-04T09:21:19.547Z,2.10
2022-12-04T09:23:46.737Z,2.10
2022-12-04T09:26:24.446Z,2.10
2022-12-04T09:28:51.955Z,2.10
2022-12-04T09:31:19.480Z,2.10
2022-12-04T09:33:46.856Z,2.10
2022-12-04T09:36:16.325Z,2.10
2022-12-04T09:38:45.164Z,2.20
2022-12-04T09:41:27.308Z,2.20
2022-12-04T09:43:58.520Z,2.20
2022-12-04T09:46:51.566Z,2.10
2022-12-04T09:49:23.748Z,2.20
2022-12-04T09:51:54.373Z,2.20
2022-12-04T09:54:24.448Z,2.30
2022-12-04T09:56:59.635Z,2.30
2022-12-04T09:59:30.603Z,2.20
2022-12-04T10:02:15.815Z,2.20
2022-12-04T10:04:42.961Z,2.20
2022-12-04T10:07:15.835Z,2.20
2022-12-04T10:10:17.519Z,2.10
2022-12-04T10:13:03.059Z,2.20
2022-12-04T10:15:44.242Z,2.30
2022-12-04T10:18:20.197Z,2.20
2022-12-04T10:21:17.206Z,2.20
2022-12-04T10:23:44.025Z,2.20
2022-12-04T10:26:17.517Z,2.10
2022-12-04T10:28:55.304Z,2.10
2022-12-04T10:31:22.999Z,2.10
2022-12-04T10:34:01.380Z,2.20
2022-12-04T10:36:34.817Z,2.20
2022-12-04T10:39:21.798Z,2.10
2022-12-04T10:41:59.225Z,2.10
2022-12-04T10:44:26.300Z,2.00
2022-12-04T10:46:59.435Z,2.00
2022-12-04T10:49:29.189Z,2.10
2022-12-04T10:51:56.660Z,2.10
2022-12-04T10:54:35.556Z,2.10
2022-12-04T10:57:05.473Z,2.10
2022-12-04T10:59:32.272Z,2.20
2022-12-04T11:02:21.265Z,2.20
2022-12-04T11:04:55.717Z,2.20
2022-12-04T11:07:27.696Z,2.30
2022-12-04T11:10:21.846Z,2.20
2022-12-04T11:13:00.751Z,2.20
2022-12-04T11:15:28.023Z,2.20
2022-12-04T11:17:54.759Z,2.20
2022-12-04T11:20:26.200Z,2.20
2022-12-04T11:22:59.137Z,2.30
2022-12-04T11:25:30.605Z,2.30
2022-12-04T11:28:01.011Z,2.40
2022-12-04T11:30:38.870Z,2.50
2022-12-04T11:33:32.125Z,2.40
2022-12-04T11:36:03.136Z,2.30
2022-12-04T11:38:34.046Z,2.40
2022-12-04T11:41:03.314Z,2.50
2022-12-04T11:43:33.568Z,2.60
2022-12-04T11:46:06.849Z,2.50
2022-12-04T11:48:43.606Z,2.50
2022-12-04T11:51:19.944Z,2.40
2022-12-04T11:53:55.739Z,2.40
2022-12-04T11:56:29.118Z,2.60
2022-12-04T12:00:00.951Z,2.60
2022-12-04T12:02:46.781Z,2.70
2022-12-04T12:05:43.624Z,2.60
2022-12-04T12:08:27.119Z,2.50
2022-12-04T12:11:02.604Z,2.50
2022-12-04T12:13:46.375Z,2.40
2022-12-04T12:16:28.319Z,2.30
2022-12-04T12:19:20.590Z,2.40
2022-12-04T12:21:53.327Z,2.30
2022-12-04T12:24:29.018Z,2.30
2022-12-04T12:27:26.903Z,2.30
2022-12-04T12:30:20.366Z,2.30
2022-12-04T12:33:02.353Z,2.40
2022-12-04T12:36:00.176Z,2.30
2022-12-04T12:38:35.000Z,2.50
2022-12-04T12:41:11.569Z,2.50
2022-12-04T12:43:40.308Z,2.50
2022-12-04T12:46:37.538Z,2.50
2022-12-04T12:49:42.498Z,2.50
2022-12-04T12:52:27.880Z,2.40
2022-12-04T12:55:26.084Z,2.30
2022-12-04T12:58:17.318Z,2.20
2022-12-04T13:01:06.249Z,2.10
2022-12-04T13:04:08.532Z,2.10
2022-12-04T13:06:44.326Z,2.10
2022-12-04T13:09:29.848Z,2.20
2022-12-04T13:12:05.869Z,2.20
2022-12-04T13:14:32.716Z,2.20
2022-12-04T13:17:04.131Z,2.20
2022-12-04T13:19:46.179Z,2.10
2022-12-04T13:22:33.837Z,2.10
2022-12-04T13:25:12.755Z,2.20
2022-12-04T13:27:58.089Z,2.20
2022-12-04T13:30:48.602Z,2.20
2022-12-04T13:33:27.327Z,2.20
2022-12-04T13:36:26.349Z,2.00
2022-12-04T13:39:22.063Z,2.10
2022-12-04T13:42:00.947Z,2.00
2022-12-04T13:44:29.797Z,2.10
2022-12-04T13:47:01.900Z,2.10
2022-12-04T13:49:34.254Z,2.10
2022-12-04T13:52:04.490Z,2.10
2022-12-04T13:54:36.009Z,2.20
2022-12-04T13:57:15.267Z,2.30
2022-12-04T13:59:42.661Z,2.30
2022-12-04T14:02:27.846Z,2.10
2022-12-04T14:05:04.065Z,2.10
2022-12-04T14:07:40.059Z,2.20
2022-12-04T14:10:22.261Z,2.20
2022-12-04T14:13:19.599Z,2.20
2022-12-04T14:15:46.607Z,2.10
2022-12-04T14:18:13.892Z,2.20
2022-12-04T14:20:44.398Z,2.10
2022-12-04T14:23:25.988Z,2.10
2022-12-04T14:25:57.746Z,2.10
2022-12-04T14:28:41.682Z,2.20
2022-12-04T14:31:09.072Z,2.20
2022-12-04T14:34:03.694Z,2.20
2022-12-04T14:36:36.191Z,2.30
2022-12-04T14:39:32.095Z,2.20
2022-12-04T14:42:38.005Z,2.20
2022-12-04T14:45:36.571Z,2.20
2022-12-04T14:48:32.611Z,2.20
2022-12-04T14:51:37.806Z,2.10
2022-12-04T14:54:10.952Z,2.20
2022-12-04T14:56:56.004Z,2.20
2022-12-04T14:59:29.592Z,2.30
2022-12-04T15:01:56.456Z,2.20
2022-12-04T15:04:35.356Z,2.30
2022-12-04T15:07:02.692Z,2.30
2022-12-04T15:09:48.362Z,2.30
2022-12-04T15:12:33.415Z,2.30
2022-12-04T15:15:22.389Z,2.30
2022-12-04T15:18:14.681Z,2.20
2022-12-04T15:20:50.211Z,2.20
2022-12-04T15:23:26.924Z,2.20
2022-12-04T15:25:58.477Z,2.20
2022-12-04T15:28:43.104Z,2.20
2022-12-04T15:31:18.880Z,2.30
2022-12-04T15:33:49.317Z,2.30
2022-12-04T15:36:42.896Z,2.40
2022-12-04T15:39:18.040Z,2.20
2022-12-04T15:41:44.733Z,2.10
2022-12-04T15:44:32.253Z,2.10
2022-12-04T15:47:01.852Z,2.00
2022-12-04T15:49:33.304Z,2.10
2022-12-04T15:52:26.362Z,2.20
2022-12-04T15:55:07.441Z,2.20
2022-12-04T15:57:42.520Z,2.30
2022-12-04T16:02:39.489Z,2.30
2022-12-04T16:05:26.103Z,2.30
2022-12-04T16:08:01.914Z,2.30
2022-12-04T16:10:32.272Z,2.30
2022-12-04T16:13:02.896Z,2.50
2022-12-04T16:15:47.669Z,2.60
2022-12-04T16:18:14.728Z,2.50
2022-12-04T16:20:41.775Z,2.30
2022-12-04T16:23:09.671Z,2.50
2022-12-04T16:25:37.025Z,2.60
2022-12-04T16:28:04.252Z,2.40
2022-12-04T16:30:33.904Z,2.30
2022-12-04T16:33:00.628Z,2.30
2022-12-04T16:35:27.788Z,2.30
2022-12-04T16:37:54.716Z,2.20
2022-12-04T16:40:21.429Z,2.30
2022-12-04T16:42:48.691Z,2.30
2022-12-04T16:45:18.352Z,2.50
2022-12-04T16:47:46.412Z,2.50
2022-12-04T16:50:13.333Z,2.50
2022-12-04T16:52:40.318Z,2.50
2022-12-04T16:55:31.466Z,2.40
2022-12-04T16:57:58.168Z,2.40
2022-12-04T17:00:25.137Z,2.40
2022-12-04T17:02:51.935Z,2.40
2022-12-04T17:05:21.646Z,2.40
2022-12-04T17:07:48.842Z,2.60
2022-12-04T17:10:23.286Z,2.50
2022-12-04T17:12:53.522Z,2.50
2022-12-04T17:15:20.329Z,2.20
2022-12-04T17:17:47.280Z,2.00
2022-12-04T17:20:16.686Z,2.20
2022-12-04T17:22:43.426Z,2.10
2022-12-04T17:25:11.616Z,2.10
2022-12-04T17:27:38.632Z,2.30
2022-12-04T17:30:06.916Z,2.30
2022-12-04T17:32:37.152Z,2.30
2022-12-04T17:35:06.229Z,2.30
2022-12-04T17:37:34.677Z,2.20
2022-12-04T17:40:02.723Z,2.10
2022-12-04T17:42:29.603Z,2.10
2022-12-04T17:44:56.934Z,2.20
2022-12-04T17:47:24.147Z,2.10
2022-12-04T17:49:51.642Z,2.10
2022-12-04T17:52:22.469Z,2.00
2022-12-04T17:54:50.598Z,2.00
2022-12-04T17:57:18.624Z,2.20
2022-12-04T17:59:45.690Z,2.20
2022-12-04T18:02:13.219Z,2.30
2022-12-04T18:04:40.134Z,2.40
2022-12-04T18:07:07.501Z,2.30
2022-12-04T18:09:35.066Z,2.20
2022-12-04T18:12:02.144Z,2.00
2022-12-04T18:14:30.008Z,2.00
2022-12-04T18:16:58.092Z,2.00
2022-12-04T18:19:28.288Z,2.00
2022-12-04T18:21:56.724Z,2.00
2022-12-04T18:24:25.219Z,1.80
2022-12-04T18:26:52.125Z,1.80
2022-12-04T18:29:24.952Z,1.70
2022-12-04T18:31:52.167Z,1.70
2022-12-04T18:34:19.441Z,1.80
2022-12-04T18:36:46.662Z,2.00
2022-12-04T18:39:20.196Z,2.10
2022-12-04T18:41:47.992Z,2.10
2022-12-04T18:44:15.474Z,2.20
2022-12-04T18:46:42.482Z,2.10
2022-12-04T18:49:10.308Z,1.90
2022-12-04T18:51:49.545Z,2.10
2022-12-04T18:54:22.409Z,2.20
2022-12-04T18:56:50.524Z,2.20
2022-12-04T18:59:20.715Z,2.10
2022-12-04T19:01:49.828Z,2.20
2022-12-04T19:04:18.336Z,2.10
2022-12-04T19:06:47.514Z,2.10
2022-12-04T19:09:20.562Z,2.20
2022-12-04T19:11:47.264Z,2.30
2022-12-04T19:14:22.697Z,2.40
2022-12-04T19:16:51.261Z,2.20
2022-12-04T19:19:18.412Z,2.30
2022-12-04T19:21:45.245Z,2.50
2022-12-04T19:24:13.997Z,2.50
2022-12-04T19:26:41.061Z,2.40
2022-12-04T19:29:08.581Z,2.30
2022-12-04T19:31:37.176Z,2.20
2022-12-04T19:34:05.104Z,2.00
2022-12-04T19:36:33.340Z,2.00
2022-12-04T19:39:01.561Z,1.90
2022-12-04T19:41:30.377Z,1.90
2022-12-04T19:43:59.565Z,2.00
2022-12-04T19:46:30.013Z,2.20
2022-12-04T19:49:01.944Z,2.20
2022-12-04T19:51:31.881Z,2.10
2022-12-04T19:53:59.005Z,2.30
2022-12-04T19:56:27.612Z,2.10
2022-12-04T19:58:56.485Z,2.10
2022-12-04T20:01:25.366Z,2.20
2022-12-04T20:03:53.592Z,2.10
2022-12-04T20:06:22.848Z,2.10
2022-12-04T20:09:01.478Z,2.10
2022-12-04T20:11:30.148Z,2.10
2022-12-04T20:13:59.785Z,2.10
2022-12-04T20:16:30.191Z,2.10
2022-12-04T20:18:59.255Z,2.20
2022-12-04T20:21:30.200Z,2.30
2022-12-04T20:24:00.172Z,2.40
2022-12-04T20:26:29.689Z,2.30
2022-12-04T20:28:58.327Z,2.30
2022-12-04T20:31:29.966Z,2.30
2022-12-04T20:33:59.750Z,2.40
2022-12-04T20:36:27.286Z,2.60
2022-12-04T20:38:58.166Z,2.50
2022-12-04T20:41:26.352Z,2.50
2022-12-04T20:43:53.241Z,2.70
2022-12-04T20:46:33.011Z,2.70
2022-12-04T20:49:01.544Z,2.70
2022-12-04T20:51:33.695Z,2.70
2022-12-04T20:54:01.514Z,2.90
2022-12-04T20:56:32.841Z,2.70
2022-12-04T20:59:04.586Z,2.60
2022-12-04T21:01:33.403Z,2.50
2022-12-04T21:04:01.234Z,2.70
2022-12-04T21:06:35.839Z,2.60
2022-12-04T21:09:05.937Z,2.70
2022-12-04T21:11:39.320Z,2.60
2022-12-04T21:14:30.380Z,2.60
2022-12-04T21:16:58.627Z,2.50
2022-12-04T21:19:26.161Z,2.30
2022-12-04T21:21:53.993Z,2.30
2022-12-04T21:24:23.661Z,2.50
2022-12-04T21:26:50.444Z,2.50
2022-12-04T21:29:18.552Z,2.30
2022-12-04T21:31:45.693Z,2.40
2022-12-04T21:34:18.615Z,2.50
2022-12-04T21:36:46.428Z,2.50
2022-12-04T21:39:14.791Z,2.40
2022-12-04T21:42:00.474Z,2.40
2022-12-04T21:44:27.478Z,2.40
2022-12-04T21:46:54.335Z,2.50
2022-12-04T21:49:21.439Z,2.30
2022-12-04T21:52:03.577Z,2.50
2022-12-04T21:54:30.861Z,2.40
2022-12-04T21:56:58.054Z,2.50
2022-12-04T21:59:26.062Z,2.40
2022-12-04T22:01:53.647Z,2.30
2022-12-04T22:04:21.123Z,2.40
2022-12-04T22:06:47.898Z,2.30
2022-12-04T22:09:15.114Z,2.20
2022-12-04T22:11:42.514Z,2.40
2022-12-04T22:14:11.132Z,2.50
2022-12-04T22:16:42.323Z,2.30
2022-12-04T22:19:10.450Z,2.50
2022-12-04T22:21:37.296Z,2.30
2022-12-04T22:24:04.906Z,2.30
2022-12-04T22:26:38.240Z,2.30
2022-12-04T22:29:27.140Z,2.60
2022-12-04T22:31:52.814Z,2.60
2022-12-04T22:34:19.870Z,2.50
2022-12-04T22:36:49.085Z,2.50
2022-12-04T22:39:15.954Z,2.40
2022-12-04T22:41:43.003Z,2.40
2022-12-04T22:44:10.109Z,2.20
2022-12-04T22:46:37.109Z,2.10
2022-12-04T22:49:04.240Z,2.10
2022-12-04T22:51:31.237Z,2.20
2022-12-04T22:53:58.628Z,2.40
2022-12-04T22:56:28.104Z,2.20
2022-12-04T22:58:55.603Z,2.00
2022-12-04T23:01:28.468Z,2.10
2022-12-04T23:03:55.827Z,2.30
2022-12-04T23:06:24.354Z,2.40
2022-12-04T23:08:55.796Z,2.20
2022-12-04T23:11:24.120Z,2.20
2022-12-04T23:13:56.975Z,2.20
2022-12-04T23:16:24.827Z,2.30
2022-12-04T23:18:52.103Z,2.40
2022-12-04T23:21:20.864Z,2.50
2022-12-04T23:23:49.385Z,2.20
2022-12-04T23:26:19.132Z,2.10
2022-12-04T23:28:46.587Z,2.20
2022-12-04T23:31:13.903Z,2.30
2022-12-04T23:33:42.004Z,2.30
2022-12-04T23:36:10.345Z,2.20
2022-12-04T23:38:39.334Z,2.50
2022-12-04T23:41:12.238Z,2.50
2022-12-04T23:43:41.419Z,2.40
2022-12-04T23:46:11.593Z,2.50
2022-12-04T23:48:40.382Z,2.60
2022-12-04T23:51:08.310Z,2.30
2022-12-04T23:53:35.773Z,2.40
2022-12-04T23:56:12.718Z,2.60
2022-12-04T23:58:40.685Z,2.70
